Time;durP1;ratioP1;P1;durP2;ratioP2;P2;SDS_P1;SDS_P2;PMS_P1;PMS_P2;Temp;Humidity;BMP_temperature;BMP_pressure;BME280_temperature;BME280_humidity;BME280_pressure;Samples;Min_cycle;Max_cycle;Signal;HPM_P1;HPM_P2
2023/10/16 00:00:40;;;;;;;6.53;1.80;;;;;;;3.75;100.00;147147.22;4925279;28;20241;-66
2023/10/16 00:03:08;;;;;;;5.33;1.40;;;;;;;3.71;100.00;147137.28;4938834;28;20226;-66
2023/10/16 00:05:42;;;;;;;3.67;1.10;;;;;;;3.66;100.00;147126.16;4935677;28;20228;-66
2023/10/16 00:08:09;;;;;;;2.87;1.40;;;;;;;3.62;100.00;147115.03;4938611;29;20233;-66
2023/10/16 00:10:36;;;;;;;2.30;1.33;;;;;;;3.50;100.00;147086.50;4936572;28;20720;-66
2023/10/16 00:13:05;;;;;;;5.87;1.50;;;;;;;3.45;100.00;147074.09;4936801;28;20335;-66
2023/10/16 00:15:40;;;;;;;5.47;1.60;;;;;;;3.42;100.00;147066.66;4935262;28;20264;-66
2023/10/16 00:18:13;;;;;;;5.20;1.30;;;;;;;3.35;100.00;147051.78;4936135;28;20305;-66
2023/10/16 00:20:40;;;;;;;4.77;1.30;;;;;;;3.32;100.00;147044.34;4933457;28;20230;-66
2023/10/16 00:23:09;;;;;;;3.70;1.30;;;;;;;3.26;100.00;147029.47;4936497;28;20227;-66
2023/10/16 00:25:38;;;;;;;6.67;1.90;;;;;;;3.21;100.00;147018.34;4932958;28;20333;-66
2023/10/16 00:28:07;;;;;;;2.40;1.10;;;;;;;3.15;100.00;147003.47;4936632;29;20325;-66
2023/10/16 00:30:33;;;;;;;3.63;1.60;;;;;;;3.02;100.00;146972.53;4938775;28;20322;-66
2023/10/16 00:33:00;;;;;;;5.87;1.50;;;;;;;2.98;100.00;146962.63;4952819;28;20265;-64
2023/10/16 00:35:27;;;;;;;3.30;1.33;;;;;;;2.89;100.00;146941.53;4939825;28;20223;-65
2023/10/16 00:37:55;;;;;;;5.63;1.40;;;;;;;2.89;100.00;146941.53;4935925;28;20243;-65
2023/10/16 00:40:31;;;;;;;4.63;1.60;;;;;;;2.95;100.00;146955.19;4939976;28;20237;-65
2023/10/16 00:43:00;;;;;;;3.13;1.33;;;;;;;2.93;100.00;146950.22;4938666;29;20226;-65
2023/10/16 00:45:28;;;;;;;3.37;1.20;;;;;;;2.94;100.00;146952.72;4935453;28;20223;-65
2023/10/16 00:47:55;;;;;;;4.30;1.33;;;;;;;2.95;100.00;146955.19;4957129;28;20591;-65
2023/10/16 00:50:23;;;;;;;6.63;1.20;;;;;;;2.86;100.00;146934.09;4948009;28;20255;-65
2023/10/16 00:52:51;;;;;;;2.10;1.33;;;;;;;2.78;100.00;146915.53;4954684;28;20706;-65
2023/10/16 00:55:20;;;;;;;7.63;2.00;;;;;;;2.87;100.00;146936.56;4935416;28;20230;-65
2023/10/16 00:57:51;;;;;;;5.13;1.27;;;;;;;2.83;100.00;146925.44;4938238;28;20228;-65
2023/10/16 01:00:18;;;;;;;4.60;1.47;;;;;;;2.77;100.00;146913.06;4922745;28;20218;-65
2023/10/16 01:02:51;;;;;;;4.97;1.40;;;;;;;2.85;100.00;146931.63;4944212;28;20318;-65
2023/10/16 01:05:23;;;;;;;3.70;1.50;;;;;;;2.93;100.00;146950.22;4938332;28;20532;-65
2023/10/16 01:07:50;;;;;;;2.93;1.50;;;;;;;2.90;100.00;146944.00;4946568;28;20219;-65
2023/10/16 01:10:20;;;;;;;5.50;1.37;;;;;;;2.86;100.00;146934.09;4943367;28;20250;-65
2023/10/16 01:12:55;;;;;;;4.60;1.43;;;;;;;2.82;100.00;146922.97;4944935;28;20214;-65
2023/10/16 01:15:22;;;;;;;4.07;1.53;;;;;;;2.79;100.00;146916.75;4942859;28;20232;-65
2023/10/16 01:17:51;;;;;;;4.50;1.80;;;;;;;2.85;100.00;146930.41;4946425;29;20226;-66
2023/10/16 01:20:18;;;;;;;3.70;1.83;;;;;;;2.91;100.00;146946.50;4938829;28;20227;-66
2023/10/16 01:22:52;;;;;;;4.60;1.80;;;;;;;2.89;100.00;146940.31;4941119;28;20236;-65
2023/10/16 01:25:20;;;;;;;5.43;1.80;;;;;;;2.91;100.00;146946.50;4937804;28;20246;-65
2023/10/16 01:27:50;;;;;;;4.67;1.67;;;;;;;2.91;100.00;146946.50;4947351;28;20246;-65
2023/10/16 01:30:17;;;;;;;5.17;2.33;;;;;;;3.08;100.00;146986.13;4938361;28;20299;-65
2023/10/16 01:32:43;;;;;;;4.50;1.60;;;;;;;3.71;100.00;147137.28;4942144;28;20230;-65
2023/10/16 01:35:10;;;;;;;6.13;1.83;;;;;;;3.59;100.00;147107.59;4938069;28;20238;-65
2023/10/16 01:37:41;;;;;;;4.67;1.77;;;;;;;3.60;100.00;147111.28;4935911;28;20227;-65
2023/10/16 01:40:17;;;;;;;4.70;1.83;;;;;;;3.66;100.00;147126.16;4944999;29;20231;-65
2023/10/16 01:42:45;;;;;;;3.40;1.80;;;;;;;3.64;100.00;147121.19;4936095;28;20230;-65
2023/10/16 01:45:12;;;;;;;3.53;1.50;;;;;;;3.68;100.00;147129.91;4945116;28;20219;-65
2023/10/16 01:47:39;;;;;;;4.67;1.53;;;;;;;3.67;100.00;147127.41;4939392;28;20852;-66
2023/10/16 01:50:12;;;;;;;2.30;1.23;;;;;;;3.64;100.00;147121.19;4945034;28;20231;-66
2023/10/16 01:52:40;;;;;;;2.50;1.60;;;;;;;3.57;100.00;147103.84;4944119;28;20247;-66
2023/10/16 01:55:11;;;;;;;3.70;1.83;;;;;;;3.54;100.00;147096.41;4941051;28;20305;-66
2023/10/16 01:57:43;;;;;;;3.37;2.00;;;;;;;3.45;100.00;147074.09;4942005;28;20309;-66
2023/10/16 02:00:16;;;;;;;4.43;1.80;;;;;;;3.42;100.00;147066.66;4945082;28;20701;-66
2023/10/16 02:02:45;;;;;;;5.67;1.77;;;;;;;3.39;100.00;147060.50;4930855;28;20318;-66
2023/10/16 02:05:13;;;;;;;5.10;1.60;;;;;;;3.34;100.00;147049.31;4945015;28;20218;-66
2023/10/16 02:07:42;;;;;;;4.17;1.53;;;;;;;3.30;100.00;147038.19;4939786;28;20389;-66
2023/10/16 02:10:12;;;;;;;2.57;1.43;;;;;;;3.32;100.00;147043.13;4941421;28;20708;-66
2023/10/16 02:12:39;;;;;;;6.27;1.80;;;;;;;3.27;100.00;147030.75;4952298;28;20237;-66
2023/10/16 02:15:08;;;;;;;4.70;1.97;;;;;;;3.38;100.00;147058.00;4940086;28;20230;-66
2023/10/16 02:17:38;;;;;;;5.30;1.53;;;;;;;3.32;100.00;147044.34;4940873;28;20717;-66
2023/10/16 02:20:11;;;;;;;4.00;1.17;;;;;;;3.28;100.00;147033.22;4939892;29;20376;-66
2023/10/16 02:22:39;;;;;;;2.27;1.37;;;;;;;3.28;100.00;147033.22;4935408;28;21155;-66
2023/10/16 02:25:08;;;;;;;7.00;1.80;;;;;;;3.18;100.00;147010.91;4937283;28;20229;-66
2023/10/16 02:27:35;;;;;;;4.70;2.00;;;;;;;3.16;100.00;147004.75;4940159;28;20827;-66
2023/10/16 02:30:15;;;;;;;5.10;1.40;;;;;;;3.10;100.00;146991.09;4941995;28;20235;-65
2023/10/16 02:32:43;;;;;;;4.07;1.40;;;;;;;3.04;100.00;146977.50;4938846;28;20249;-66
2023/10/16 02:35:13;;;;;;;2.80;1.60;;;;;;;3.02;100.00;146972.53;4938953;28;20223;-66
2023/10/16 02:37:40;;;;;;;3.53;1.87;;;;;;;3.03;100.00;146975.00;4940482;28;20754;-67
2023/10/16 02:40:10;;;;;;;3.60;1.70;;;;;;;2.96;100.00;146957.66;4937299;28;20234;-67
2023/10/16 02:42:39;;;;;;;3.67;1.30;;;;;;;2.89;100.00;146940.31;4940960;28;20324;-64
2023/10/16 02:45:17;;;;;;;4.50;1.53;;;;;;;2.82;100.00;146924.19;4953889;28;20251;-65
2023/10/16 02:47:46;;;;;;;2.63;1.73;;;;;;;2.77;100.00;146913.06;4941908;29;20309;-65
2023/10/16 02:50:14;;;;;;;6.27;1.47;;;;;;;2.70;100.00;146894.47;4938546;28;20235;-65
2023/10/16 02:52:41;;;;;;;4.17;1.67;;;;;;;2.76;100.00;146909.31;4941573;29;20245;-65
2023/10/16 02:55:10;;;;;;;2.80;1.60;;;;;;;2.73;100.00;146903.16;4944554;28;20230;-65
2023/10/16 02:57:40;;;;;;;4.17;1.40;;;;;;;2.77;100.00;146913.06;4935319;28;20294;-65
2023/10/16 03:00:09;;;;;;;4.03;1.67;;;;;;;2.68;100.00;146890.78;4944858;29;20308;-66
2023/10/16 03:05:25;;;;;;;4.27;1.40;;;;;;;2.64;100.00;146880.84;5028312;23;20233;-56
2023/10/16 03:07:51;;;;;;;4.37;1.60;;;;;;;2.65;100.00;146883.34;4944724;29;20323;-56
2023/10/16 03:10:20;;;;;;;6.20;1.70;;;;;;;2.61;100.00;146874.69;4943154;28;20252;-56
2023/10/16 03:12:50;;;;;;;5.90;1.50;;;;;;;2.64;100.00;146880.84;4945818;29;20231;-56
2023/10/16 03:15:20;;;;;;;4.50;1.27;;;;;;;2.62;100.00;146877.16;4939479;29;20326;-54
2023/10/16 03:17:51;;;;;;;3.53;1.67;;;;;;;2.61;100.00;146874.69;4927317;29;20296;-53
2023/10/16 03:20:24;;;;;;;6.37;1.80;;;;;;;2.58;100.00;146866.00;4925179;29;20242;-54
2023/10/16 03:22:53;;;;;;;4.23;1.70;;;;;;;2.65;100.00;146883.34;4927989;29;20306;-55
2023/10/16 03:25:27;;;;;;;4.23;1.43;;;;;;;2.65;100.00;146884.56;4938797;29;20234;-54
2023/10/16 03:27:56;;;;;;;2.57;1.53;;;;;;;2.60;100.00;146872.22;4942483;29;20725;-55
2023/10/16 03:33:05;;;;;;;3.27;1.43;;;;;;;2.61;100.00;146874.69;4974616;23;20702;-58
2023/10/16 03:35:34;;;;;;;3.47;1.87;;;;;;;2.57;100.00;146863.50;4937286;28;20289;-59
2023/10/16 03:38:10;;;;;;;6.70;1.40;;;;;;;2.62;100.00;146875.91;4937173;28;20239;-59
2023/10/16 03:40:36;;;;;;;7.23;1.50;;;;;;;2.68;100.00;146889.50;4932985;28;20634;-56
2023/10/16 03:43:03;;;;;;;3.00;1.20;;;;;;;2.66;100.00;146885.81;4941003;29;20271;-58
2023/10/16 03:45:31;;;;;;;5.43;1.57;;;;;;;2.60;100.00;146870.94;4918953;29;20233;-58
2023/10/16 03:48:00;;;;;;;2.60;0.97;;;;;;;2.54;100.00;146857.34;4920226;29;20476;-56
2023/10/16 03:50:34;;;;;;;5.17;1.40;;;;;;;2.64;100.00;146880.84;4917419;29;20603;-58
2023/10/16 03:53:02;;;;;;;5.87;1.30;;;;;;;2.63;100.00;146878.38;4921571;29;20238;-57
2023/10/16 03:55:32;;;;;;;6.17;1.20;;;;;;;2.68;100.00;146890.78;4919085;29;20227;-58
2023/10/16 03:57:58;;;;;;;1.97;0.97;;;;;;;2.69;100.00;146891.97;4923336;29;20230;-58
2023/10/16 04:00:26;;;;;;;3.30;1.20;;;;;;;2.68;100.00;146890.78;4918709;29;20230;-58
2023/10/16 04:02:53;;;;;;;2.70;1.07;;;;;;;2.70;100.00;146894.47;4923951;29;20244;-58
2023/10/16 04:05:33;;;;;;;3.23;1.37;;;;;;;2.76;100.00;146909.31;4921424;29;20235;-59
2023/10/16 04:08:02;;;;;;;2.33;1.40;;;;;;;2.74;100.00;146905.63;4923898;29;20231;-59
2023/10/16 04:10:29;;;;;;;3.17;1.20;;;;;;;2.70;100.00;146895.72;4917345;29;20283;-57
2023/10/16 04:12:57;;;;;;;5.63;1.67;;;;;;;2.71;100.00;146896.94;4919900;29;20841;-58
2023/10/16 04:15:43;;;;;;;3.23;1.10;;;;;;;2.65;100.00;146884.56;4917893;29;20330;-58
2023/10/16 04:18:18;;;;;;;2.40;1.20;;;;;;;2.61;100.00;146873.44;4921300;29;20253;-59
2023/10/16 04:20:46;;;;;;;3.30;1.50;;;;;;;2.56;100.00;146862.31;4916594;29;20238;-58
2023/10/16 04:23:29;;;;;;;2.93;1.03;;;;;;;2.64;100.00;146880.84;4919437;29;20239;-59
2023/10/16 04:29:20;;;;;;;2.10;1.13;;;;;;;2.59;100.00;146868.47;4915353;29;20232;-59
2023/10/16 04:31:43;;;;;;;3.73;1.60;;;;;;;2.58;100.00;146867.25;4918689;29;20591;-59
2023/10/16 04:34:24;;;;;;;4.67;1.47;;;;;;;2.50;100.00;146848.66;4920615;29;20243;-59
2023/10/16 04:36:52;;;;;;;3.13;1.23;;;;;;;2.49;100.00;146844.97;4919586;29;20239;-59
2023/10/16 04:45:00;;;;;;;3.40;1.30;;;;;;;2.43;100.00;146831.31;4921534;29;20241;-59
2023/10/16 04:47:28;;;;;;;5.50;1.33;;;;;;;2.42;100.00;146827.63;4921011;29;20231;-58
2023/10/16 04:50:07;;;;;;;2.03;0.93;;;;;;;2.43;100.00;146831.31;4920499;29;20795;-58
2023/10/16 04:55:52;;;;;;;3.67;1.30;;;;;;;2.40;100.00;146823.88;4923621;29;20597;-58
2023/10/16 04:58:27;;;;;;;3.40;1.27;;;;;;;2.40;100.00;146823.88;4923587;29;20780;-59
2023/10/16 05:00:56;;;;;;;5.32;1.67;;;;;;;2.35;100.00;146811.50;4919281;29;20500;-59
2023/10/16 05:03:23;;;;;;;3.57;1.43;;;;;;;2.31;100.00;146802.84;4940906;29;20231;-59
2023/10/16 05:06:06;;;;;;;4.43;1.40;;;;;;;2.31;100.00;146802.84;4926591;29;20226;-59
2023/10/16 05:08:38;;;;;;;2.90;1.23;;;;;;;2.38;100.00;146817.72;4923236;29;20239;-58
2023/10/16 05:14:04;;;;;;;4.60;1.20;;;;;;;2.30;100.00;146800.38;4908078;29;20257;-59
2023/10/16 05:16:35;;;;;;;3.43;1.30;;;;;;;2.30;100.00;146800.38;4919278;29;21020;-59
2023/10/16 05:19:15;;;;;;;4.70;1.60;;;;;;;2.29;100.00;146797.91;4923646;29;20234;-59
2023/10/16 06:14:13;;;;;;;3.63;1.50;;;;;;;2.88;100.00;146939.06;4923038;29;20231;-59
2023/10/16 06:16:43;;;;;;;3.37;1.60;;;;;;;2.93;100.00;146951.44;4918881;29;20700;-59
2023/10/16 06:19:15;;;;;;;6.77;1.70;;;;;;;2.95;100.00;146955.19;4921853;29;20745;-60
2023/10/16 06:21:46;;;;;;;3.80;1.63;;;;;;;3.02;100.00;146972.53;4920131;29;20322;-59
2023/10/16 06:24:28;;;;;;;4.07;1.50;;;;;;;3.07;100.00;146984.91;4919351;29;20231;-60
2023/10/16 06:26:56;;;;;;;3.20;1.83;;;;;;;3.07;100.00;146983.66;4920523;29;20324;-61
2023/10/16 06:29:24;;;;;;;5.17;1.77;;;;;;;3.08;100.00;146986.13;4917977;29;20725;-59
2023/10/16 06:31:58;;;;;;;4.35;1.60;;;;;;;3.17;100.00;147007.22;4921634;29;20457;-58
2023/10/16 06:34:25;;;;;;;4.30;1.80;;;;;;;3.20;100.00;147015.88;4918791;29;20294;-58
2023/10/16 06:36:52;;;;;;;5.23;1.40;;;;;;;3.24;100.00;147024.53;4921540;29;20718;-59
2023/10/16 06:39:29;;;;;;;2.33;1.70;;;;;;;3.30;100.00;147038.19;4919056;29;20246;-59
2023/10/16 06:41:56;;;;;;;3.63;1.40;;;;;;;3.33;100.00;147046.84;4922145;29;20753;-59
2023/10/16 06:44:28;;;;;;;5.60;1.60;;;;;;;3.37;100.00;147055.53;4917716;29;20231;-59
2023/10/16 06:46:59;;;;;;;3.63;1.30;;;;;;;3.45;100.00;147074.09;4919168;29;20231;-59
2023/10/16 06:49:28;;;;;;;6.93;1.70;;;;;;;3.52;100.00;147092.72;4918013;29;20562;-58
2023/10/16 06:51:56;;;;;;;2.13;1.30;;;;;;;3.52;100.00;147091.44;4923022;29;20882;-58
2023/10/16 06:54:25;;;;;;;5.37;2.10;;;;;;;3.57;100.00;147102.63;4922439;29;20236;-59
2023/10/16 06:56:52;;;;;;;4.03;1.63;;;;;;;3.66;100.00;147124.94;4918774;29;20298;-59
2023/10/16 06:59:18;;;;;;;4.73;2.13;;;;;;;3.67;100.00;147128.63;4920121;29;20243;-58
2023/10/16 07:01:46;;;;;;;3.90;1.70;;;;;;;3.71;100.00;147137.28;4922309;29;20283;-57
2023/10/16 07:04:15;;;;;;;3.77;1.90;;;;;;;3.72;100.00;147138.56;4919238;29;20224;-59
2023/10/16 07:06:44;;;;;;;3.40;2.10;;;;;;;3.76;100.00;147148.47;4919054;29;20223;-59
2023/10/16 07:09:12;;;;;;;3.37;1.93;;;;;;;3.78;100.00;147154.66;4921982;29;20242;-59
2023/10/16 07:11:42;;;;;;;6.00;1.87;;;;;;;3.79;100.00;147155.91;4915939;29;20643;-59
2023/10/16 07:14:12;;;;;;;5.90;2.10;;;;;;;3.81;100.00;147162.09;4924735;29;20322;-59
2023/10/16 07:16:40;;;;;;;2.10;1.80;;;;;;;3.82;100.00;147163.34;4918238;29;20290;-59
2023/10/16 07:19:08;;;;;;;5.33;1.80;;;;;;;3.86;100.00;147173.28;4921187;29;20223;-59
2023/10/16 07:21:36;;;;;;;6.27;2.47;;;;;;;3.90;100.00;147183.19;4918517;29;20235;-59
2023/10/16 07:24:04;;;;;;;5.37;2.50;;;;;;;3.91;100.00;147184.41;4920296;29;20231;-59
2023/10/16 07:26:30;;;;;;;6.63;3.80;;;;;;;3.93;100.00;147190.63;4919652;29;20227;-59
2023/10/16 07:28:58;;;;;;;7.33;4.33;;;;;;;3.96;100.00;147196.81;4924890;29;20606;-59
2023/10/16 07:31:26;;;;;;;6.33;3.90;;;;;;;4.05;100.00;147217.91;4920463;29;20239;-59
2023/10/16 07:33:59;;;;;;;6.97;3.00;;;;;;;4.05;100.00;147217.91;4920831;29;20294;-56
2023/10/16 07:36:26;;;;;;;7.70;3.73;;;;;;;4.12;100.00;147235.25;4918574;29;20760;-58
2023/10/16 07:38:54;;;;;;;6.20;3.10;;;;;;;4.22;100.00;147258.81;4921209;29;20237;-57
2023/10/16 07:41:23;;;;;;;4.97;3.50;;;;;;;4.28;100.00;147273.69;4916599;29;20235;-55
2023/10/16 07:43:56;;;;;;;9.43;5.03;;;;;;;4.36;100.00;147292.25;4920906;29;20318;-59
2023/10/16 07:46:30;;;;;;;14.13;5.77;;;;;;;4.39;100.00;147300.97;4921996;29;20239;-59
2023/10/16 07:49:01;;;;;;;11.67;5.60;;;;;;;4.47;100.00;147318.34;4923236;29;20737;-59
2023/10/16 07:51:28;;;;;;;10.53;5.27;;;;;;;4.53;100.00;147333.22;4919569;29;20309;-61
2023/10/16 07:54:00;;;;;;;9.10;4.83;;;;;;;4.60;100.00;147350.59;4913588;29;20615;-60
2023/10/16 07:56:28;;;;;;;12.40;8.00;;;;;;;4.65;100.00;147361.72;4913513;29;20262;-59
2023/10/16 07:59:06;;;;;;;6.80;4.70;;;;;;;4.70;100.00;147374.13;4919035;29;20233;-60
2023/10/16 08:01:41;;;;;;;13.77;7.60;;;;;;;4.69;100.00;147372.91;4918720;29;20324;-60
2023/10/16 08:04:19;;;;;;;10.87;4.63;;;;;;;4.82;100.00;147402.63;4923943;29;20774;-60
2023/10/16 08:06:47;;;;;;;8.60;5.30;;;;;;;4.84;100.00;147407.59;4919182;29;20239;-60
2023/10/16 08:12:35;;;;;;;7.80;4.67;;;;;;;5.07;100.00;147462.19;4920212;29;20240;-60
2023/10/16 08:15:14;;;;;;;7.70;3.93;;;;;;;5.22;100.00;147499.41;4919258;29;20292;-60
2023/10/16 08:17:43;;;;;;;6.67;4.33;;;;;;;5.44;100.00;147552.75;4925735;29;20291;-59
2023/10/16 08:20:17;;;;;;;6.67;3.73;;;;;;;5.54;97.54;147575.09;4930910;29;20242;-60
2023/10/16 08:22:45;;;;;;;7.97;4.40;;;;;;;5.54;98.35;147576.38;4924034;29;20232;-58
2023/10/16 08:25:30;;;;;;;12.13;8.27;;;;;;;5.56;96.01;147581.34;4927000;29;20230;-60
2023/10/16 08:27:58;;;;;;;11.97;5.20;;;;;;;5.62;96.33;147594.97;4927271;29;20240;-58
2023/10/16 08:30:34;;;;;;;6.43;4.23;;;;;;;5.67;96.63;147606.16;4928758;29;20236;-59
2023/10/16 08:33:07;;;;;;;6.13;4.37;;;;;;;5.83;94.78;147645.84;4927355;29;20329;-59
2023/10/16 08:35:38;;;;;;;5.03;3.60;;;;;;;5.83;96.16;147644.63;4922544;29;20236;-60
2023/10/16 08:38:10;;;;;;;7.87;4.30;;;;;;;5.95;94.81;147674.44;4928324;29;20227;-59
2023/10/16 08:40:44;;;;;;;9.30;4.33;;;;;;;6.00;95.04;147685.56;4923508;29;20232;-56
2023/10/16 08:43:17;;;;;;;8.17;3.93;;;;;;;6.03;94.04;147694.34;4927457;29;20256;-59
2023/10/16 08:45:48;;;;;;;6.30;4.00;;;;;;;6.09;94.90;147707.97;4925815;29;20613;-60
2023/10/16 08:48:17;;;;;;;6.47;4.17;;;;;;;5.98;93.71;147681.88;4923722;29;20680;-60
2023/10/16 08:50:52;;;;;;;6.40;4.27;;;;;;;6.03;94.41;147694.34;4927543;29;20232;-59
2023/10/16 08:53:31;;;;;;;9.17;5.53;;;;;;;5.97;95.64;147679.38;4925599;29;20235;-59
2023/10/16 08:56:07;;;;;;;15.83;7.83;;;;;;;5.91;96.95;147665.72;4925525;29;20236;-60
2023/10/16 08:58:38;;;;;;;20.70;11.43;;;;;;;6.03;96.21;147694.34;4926472;29;21129;-60
2023/10/16 09:01:07;;;;;;;24.00;12.07;;;;;;;5.94;97.26;147671.94;4928634;29;20240;-60
2023/10/16 09:03:38;;;;;;;36.00;20.00;;;;;;;6.09;96.65;147707.97;4925221;29;20291;-59
2023/10/16 09:06:05;;;;;;;49.50;25.87;;;;;;;6.17;96.88;147726.63;4924666;29;20296;-60
2023/10/16 09:08:33;;;;;;;50.77;26.60;;;;;;;6.22;96.54;147739.03;4924404;29;20236;-60
2023/10/16 09:11:05;;;;;;;58.23;29.73;;;;;;;6.44;97.55;147792.44;4928260;29;20731;-59
2023/10/16 09:13:36;;;;;;;70.67;33.47;;;;;;;6.54;97.05;147814.78;4924127;29;20248;-60
2023/10/16 09:16:07;;;;;;;46.67;23.40;;;;;;;6.68;96.00;147849.56;4927381;29;20290;-59
2023/10/16 09:18:35;;;;;;;31.43;16.97;;;;;;;6.69;95.37;147852.03;4925565;29;20963;-58
2023/10/16 09:21:03;;;;;;;26.67;13.03;;;;;;;6.79;95.43;147876.91;4925099;29;20235;-59
2023/10/16 09:23:37;;;;;;;22.57;12.13;;;;;;;6.91;94.51;147904.19;4924435;29;20290;-59
2023/10/16 09:26:07;;;;;;;18.17;9.57;;;;;;;6.90;94.52;147902.97;4926696;29;20241;-60
2023/10/16 09:28:35;;;;;;;16.33;9.73;;;;;;;7.00;95.37;147926.53;4922110;29;20307;-60
2023/10/16 09:31:06;;;;;;;15.70;8.17;;;;;;;7.02;95.73;147930.28;4920219;29;20373;-59
2023/10/16 09:33:34;;;;;;;13.27;7.30;;;;;;;7.17;95.06;147966.31;4917582;29;20243;-59
2023/10/16 09:36:17;;;;;;;14.10;7.30;;;;;;;7.24;94.61;147983.72;4923667;29;20736;-60
2023/10/16 09:38:45;;;;;;;15.70;6.30;;;;;;;7.42;94.22;148025.97;4922760;29;20244;-60
2023/10/16 09:44:07;;;;;;;11.57;5.77;;;;;;;7.64;92.21;148079.38;4919760;29;20337;-59
2023/10/16 09:46:48;;;;;;;13.17;6.67;;;;;;;7.72;92.53;148099.28;4924860;29;21746;-59
2023/10/16 09:49:21;;;;;;;11.53;5.40;;;;;;;7.79;92.68;148115.47;4922173;29;20588;-59
2023/10/16 09:51:49;;;;;;;10.30;4.90;;;;;;;8.04;91.53;148176.38;4922855;29;20234;-59
2023/10/16 09:54:15;;;;;;;11.07;4.97;;;;;;;8.01;90.56;148168.91;4921663;29;20604;-59
2023/10/16 09:56:48;;;;;;;13.87;5.03;;;;;;;8.15;91.10;148201.22;4923507;29;20229;-56
2023/10/16 09:59:26;;;;;;;10.70;5.23;;;;;;;8.09;90.71;148188.81;4917295;29;20690;-59
2023/10/16 10:01:55;;;;;;;8.07;4.23;;;;;;;8.28;90.43;148234.78;4924366;29;20272;-59
2023/10/16 10:04:24;;;;;;;8.00;4.27;;;;;;;8.40;89.83;148262.16;4921052;29;20571;-58
2023/10/16 10:06:57;;;;;;;9.93;4.33;;;;;;;8.55;89.92;148299.50;4924495;29;20230;-59
2023/10/16 10:09:41;;;;;;;8.87;4.10;;;;;;;8.67;88.16;148326.88;4919364;29;20293;-59
2023/10/16 10:12:23;;;;;;;7.93;4.20;;;;;;;8.87;87.19;148375.38;4923227;29;20767;-59
2023/10/16 10:15:07;;;;;;;6.50;3.60;;;;;;;8.94;86.18;148392.78;4918943;29;20250;-58
2023/10/16 10:17:35;;;;;;;9.10;3.80;;;;;;;9.09;85.86;148427.63;4917329;29;21867;-58
2023/10/16 10:20:08;;;;;;;5.40;2.97;;;;;;;9.15;83.73;148442.56;4922354;29;20244;-59
2023/10/16 10:22:37;;;;;;;6.57;2.73;;;;;;;9.35;82.66;148491.06;4940360;29;20248;-59
2023/10/16 10:25:16;;;;;;;6.80;2.93;;;;;;;9.47;82.39;148519.72;4923883;29;20273;-59
2023/10/16 10:27:45;;;;;;;4.00;2.70;;;;;;;9.59;80.86;148549.56;4919037;29;20236;-59
2023/10/16 10:30:17;;;;;;;4.70;2.30;;;;;;;9.77;79.97;148591.88;4922483;29;20229;-58
2023/10/16 10:32:51;;;;;;;5.00;2.00;;;;;;;9.88;78.78;148619.25;4920810;29;20229;-59
2023/10/16 10:35:26;;;;;;;3.90;1.83;;;;;;;10.12;77.05;148676.53;4919840;29;20240;-59
2023/10/16 10:38:07;;;;;;;2.57;1.50;;;;;;;10.13;70.14;148679.03;4923289;29;20236;-60
2023/10/16 10:40:35;;;;;;;3.27;1.03;;;;;;;10.26;67.15;148708.91;4932809;29;20309;-59
2023/10/16 10:43:05;;;;;;;2.30;0.97;;;;;;;10.38;66.92;148738.81;4923377;29;20237;-60
2023/10/16 10:45:39;;;;;;;2.90;1.50;;;;;;;10.57;67.78;148783.69;4923034;29;20238;-59
2023/10/16 10:48:09;;;;;;;2.40;1.33;;;;;;;10.69;69.84;148812.31;4923224;29;20230;-60
2023/10/16 10:50:38;;;;;;;9.23;1.73;;;;;;;10.73;66.94;148823.50;4920151;29;20684;-60
2023/10/16 10:53:13;;;;;;;2.70;1.37;;;;;;;10.77;65.97;148833.47;4917226;29;20309;-59
2023/10/16 10:55:53;;;;;;;3.33;1.30;;;;;;;10.95;64.98;148874.59;4918663;29;20731;-59
2023/10/16 10:58:23;;;;;;;4.23;1.30;;;;;;;11.07;66.13;148904.50;4920550;29;20235;-56
2023/10/16 11:01:00;;;;;;;3.67;1.40;;;;;;;11.19;62.82;148934.38;4918259;29;20278;-59
2023/10/16 11:03:33;;;;;;;1.33;0.50;;;;;;;11.19;53.15;148933.13;4920650;29;20693;-59
2023/10/16 11:05:59;;;;;;;3.80;1.67;;;;;;;11.37;60.30;148976.72;4926208;29;20230;-59
2023/10/16 11:08:33;;;;;;;3.87;1.80;;;;;;;11.57;65.79;149025.34;4920813;29;20245;-60
2023/10/16 11:11:03;;;;;;;5.53;1.70;;;;;;;11.62;63.58;149037.81;4922672;29;20247;-59
2023/10/16 11:13:31;;;;;;;3.60;1.43;;;;;;;11.50;63.73;149009.13;4922321;29;20340;-59
2023/10/16 11:16:00;;;;;;;0.83;0.70;;;;;;;11.41;55.60;148986.69;4923593;29;20235;-59
2023/10/16 11:18:28;;;;;;;1.83;0.90;;;;;;;11.50;57.24;149007.91;4922201;29;20246;-59
2023/10/16 11:20:59;;;;;;;2.03;0.70;;;;;;;11.62;54.33;149037.81;4938543;29;20762;-59
2023/10/16 11:23:31;;;;;;;1.40;0.50;;;;;;;11.70;50.56;149056.50;4917441;29;20711;-60
2023/10/16 11:25:58;;;;;;;1.03;0.60;;;;;;;11.87;49.78;149096.38;4923417;29;20307;-60
2023/10/16 11:28:31;;;;;;;2.17;0.70;;;;;;;12.02;47.53;149133.84;4920122;29;20751;-59
2023/10/16 11:31:04;;;;;;;0.50;0.30;;;;;;;12.25;47.25;149188.66;4922950;29;20283;-59
2023/10/16 11:33:43;;;;;;;0.80;0.30;;;;;;;12.27;48.83;149193.63;4918159;29;20236;-60
2023/10/16 11:36:13;;;;;;;1.00;0.40;;;;;;;12.40;47.71;149226.06;4918219;29;20227;-60
2023/10/16 11:38:40;;;;;;;2.30;0.40;;;;;;;12.42;44.93;149229.81;4919101;29;20247;-60
2023/10/16 11:41:12;;;;;;;0.97;0.57;;;;;;;12.43;45.61;149232.31;4921256;29;20240;-59
2023/10/16 11:43:47;;;;;;;1.57;0.40;;;;;;;12.48;45.18;149243.53;4920190;29;20234;-59
2023/10/16 11:49:29;;;;;;;1.63;0.50;;;;;;;12.44;45.11;149234.81;4910690;29;20695;-59
2023/10/16 11:51:59;;;;;;;1.57;0.70;;;;;;;12.28;49.29;149196.13;4922174;29;20247;-58
2023/10/16 11:54:28;;;;;;;1.30;0.50;;;;;;;12.31;47.41;149203.63;4919308;29;20712;-59
2023/10/16 11:56:59;;;;;;;1.33;0.63;;;;;;;12.57;46.55;149265.97;4918849;29;20747;-60
2023/10/16 11:59:27;;;;;;;2.97;0.40;;;;;;;12.57;46.62;149265.97;4919803;29;20232;-60
2023/10/16 12:01:59;;;;;;;0.93;0.40;;;;;;;12.80;49.05;149320.84;4918979;29;20241;-59
2023/10/16 12:04:27;;;;;;;1.87;0.60;;;;;;;12.76;46.28;149312.09;4921164;29;20242;-60
2023/10/16 12:06:54;;;;;;;1.63;0.60;;;;;;;12.87;44.10;149337.03;4919396;29;20767;-59
2023/10/16 12:09:21;;;;;;;2.80;0.60;;;;;;;12.95;43.53;149357.00;4920229;29;20223;-60
2023/10/16 12:11:49;;;;;;;1.40;0.80;;;;;;;12.90;42.53;149344.53;4920551;29;20355;-59
2023/10/16 12:14:16;;;;;;;1.20;0.40;;;;;;;12.97;46.58;149362.00;4918830;29;20237;-60
2023/10/16 12:16:45;;;;;;;1.27;0.60;;;;;;;12.97;44.19;149362.00;4920621;29;20236;-60
2023/10/16 12:19:14;;;;;;;1.83;0.60;;;;;;;13.05;46.74;149381.94;4919952;29;20721;-60
2023/10/16 12:21:40;;;;;;;1.80;0.70;;;;;;;13.18;44.58;149413.16;4919998;29;20303;-60
2023/10/16 12:24:10;;;;;;;1.40;0.40;;;;;;;12.98;42.69;149364.50;4921732;29;20224;-60
2023/10/16 12:26:37;;;;;;;1.63;0.40;;;;;;;12.91;41.03;149348.28;4921405;29;20303;-59
2023/10/16 12:29:04;;;;;;;2.73;0.63;;;;;;;12.87;42.29;149338.31;4918671;29;20227;-60
2023/10/16 12:31:31;;;;;;;1.80;0.50;;;;;;;13.08;43.46;149389.44;4910348;29;20462;-60
2023/10/16 12:33:59;;;;;;;1.60;0.57;;;;;;;13.29;43.02;149439.34;4919841;29;20264;-59
2023/10/16 12:36:29;;;;;;;3.07;0.70;;;;;;;13.38;39.86;149461.81;4916444;29;20228;-60
2023/10/16 12:38:55;;;;;;;1.30;0.60;;;;;;;13.14;42.23;149403.19;4922048;29;20224;-63
2023/10/16 12:41:23;;;;;;;1.30;0.57;;;;;;;13.36;51.35;149455.53;4920377;29;20226;-63
2023/10/16 12:43:50;;;;;;;0.67;0.30;;;;;;;13.62;49.18;149517.97;4922296;29;20739;-62
2023/10/16 12:46:17;;;;;;;2.03;0.50;;;;;;;13.66;45.14;149529.25;4917029;29;20239;-61
2023/10/16 12:48:44;;;;;;;1.30;0.60;;;;;;;13.62;41.53;149519.25;4919067;29;20246;-61
2023/10/16 12:51:11;;;;;;;1.33;0.50;;;;;;;13.36;41.94;149456.81;4920853;29;20267;-60
2023/10/16 12:53:39;;;;;;;2.07;0.50;;;;;;;13.19;40.79;149415.66;4918079;29;20299;-59
2023/10/16 12:56:06;;;;;;;2.97;0.50;;;;;;;13.21;40.37;149419.38;4920836;29;20278;-60
2023/10/16 12:58:34;;;;;;;1.27;0.50;;;;;;;13.27;41.09;149435.56;4917222;29;20269;-60
2023/10/16 13:01:04;;;;;;;0.57;0.40;;;;;;;13.36;38.64;149455.53;4924306;29;20299;-60